Stockton, New Jersey
Current Conditions -  °F | °C
As of 6:54 AM on Monday 26 Jan 2015 (Local Time) from KDYL Reporting Station
Overcast Overcast  
Wind Chill: 11°   Ceiling: 2900
Heat Index: 20°   Visibility: 10mi
Dew Point: 17°   Wind: 7mph
Humidity: 89%   Direction: 50°NE
Pressure: 29.92"   Gusts: NA
Location:  40.41°N, 74.98°W
Report Text: KDYL 261154Z AUTO 05006KT 10SM SCT015 BKN029 OVC110 M07/M08 A2992 RMK AO2 SNE43 SLP142 P0000 60000 T10671083 11033 21067 56006
Loading
Personal Weather Stations






























Interactive Weather Map New forecast layout! Learn more

10-Day Weather Forecast

Advertisements
Track Severe Weather on mobile